Terminal Aerodrome Forecast
Issued by NWS

Home | Current Version | Previous Version | Text Only | Print | Product List | Glossary On
Versions: 1 2 3 4 5 6 7 8 9 10 11 12 13 14 15 16 17
000
FTUS41 KBOX 230542
TAFBED
TAF
KBED 230542Z 2306/2406 05012KT 6SM -DZ BKN020
     FM231200 05012G26KT 5SM -SHRA OVC015
     FM232300 06015G37KT P6SM -SHRASNPL OVC008
     FM240100 06017G39KT P6SM -PLSN OVC008
     FM240300 05016G39KT 3SM -RAPL BR OVC008=

USA.gov is the U.S. government's official web portal to all federal, state and local government web resources and services.